Nottely Observed Data For Previous 48 Hours

Caption
Day and Hour Reservoir Elevation (behind dam)* Tailwater Elevation (below dam)* Average Hourly Discharge*
1/15/2018 2 AM EST 1,761.23 1,607.81 62
1/15/2018 3 AM EST 1,761.23 1,607.83 63
1/15/2018 4 AM EST 1,761.24 1,607.82 62
1/15/2018 5 AM EST 1,761.25 1,607.82 62
1/15/2018 6 AM EST 1,761.26 1,607.82 62
1/15/2018 7 AM EST 1,761.26 1,609.40 99
1/15/2018 8 AM EST 1,761.24 1,611.46 1,417
1/15/2018 9 AM EST 1,761.21 1,611.44 1,439
1/15/2018 10 AM EST 1,761.17 1,611.52 1,439
1/15/2018 11 AM EST 1,761.18 1,607.81 164
1/15/2018 12 PM EST 1,761.18 1,607.82 62
1/15/2018 1 PM EST 1,761.19 1,607.82 63
1/15/2018 2 PM EST 1,761.20 1,607.83 63
1/15/2018 3 PM EST 1,761.20 1,607.82 62
1/15/2018 4 PM EST 1,761.21 1,607.83 63
1/15/2018 5 PM EST 1,761.21 1,607.82 62
1/15/2018 6 PM EST 1,761.22 1,607.82 63
1/15/2018 7 PM EST 1,761.22 1,611.12 182
1/15/2018 8 PM EST 1,761.20 1,611.48 1,446
1/15/2018 9 PM EST 1,761.17 1,611.48 1,445
1/15/2018 10 PM EST 1,761.14 1,611.49 1,446
1/15/2018 11 PM EST 1,761.14 1,607.89 173
1/16/2018 12 AM EST 1,761.15 1,607.88 62
1/16/2018 1 AM EST 1,761.15 1,607.89 63
1/16/2018 2 AM EST 1,761.17 1,607.87 62
1/16/2018 3 AM EST 1,761.17 1,607.89 63
1/16/2018 4 AM EST 1,761.17 1,607.87 62
1/16/2018 5 AM EST 1,761.18 1,607.88 63
1/16/2018 6 AM EST 1,761.18 1,607.87 62
1/16/2018 7 AM EST 1,761.19 1,611.00 141
1/16/2018 8 AM EST 1,761.17 1,611.48 1,429
1/16/2018 9 AM EST 1,761.13 1,611.47 1,440
1/16/2018 10 AM EST 1,761.10 1,611.49 1,442
1/16/2018 11 AM EST 1,761.10 1,607.87 153
1/16/2018 12 PM EST 1,761.10 1,607.87 62
1/16/2018 1 PM EST 1,761.10 1,607.87 63
1/16/2018 2 PM EST 1,761.11 1,607.87 62
1/16/2018 3 PM EST 1,761.12 1,607.85 62
1/16/2018 4 PM EST 1,761.13 1,607.86 63
1/16/2018 5 PM EST 1,761.14 1,607.86 63
1/16/2018 6 PM EST 1,761.14 1,611.11 180
1/16/2018 7 PM EST 1,761.12 1,611.47 1,452
1/16/2018 8 PM EST 1,761.09 1,611.50 1,463
1/16/2018 9 PM EST 1,761.06 1,611.50 1,455
1/16/2018 10 PM EST 1,761.02 1,611.48 1,455
1/16/2018 11 PM EST 1,761.03 1,607.83 168
1/17/2018 12 AM EST 1,761.03 1,607.82 62
1/17/2018 1 AM EST 1,761.04 1,607.83 63
1/17/2018 2 AM EST 1,761.05 1,607.83 62
1/17/2018 3 AM EST 1,761.05 1,607.80 62
1/17/2018 4 AM EST 1,761.06 1,607.82 62
1/17/2018 5 AM EST 1,761.06 1,607.82 62
1/17/2018 6 AM EST 1,761.07 1,607.82 62
1/17/2018 7 AM EST 1,761.07 1,608.43 101
1/17/2018 8 AM EST 1,761.06 1,611.43 836
1/17/2018 9 AM EST 1,761.02 1,611.48 1,453
1/17/2018 10 AM EST 1,760.99 1,611.49 1,454
1/17/2018 11 AM EST 1,761.00 1,607.81 219
1/17/2018 12 PM EST 1,761.00 1,607.82 62
1/17/2018 1 PM EST 1,761.00 1,607.81 62
1/17/2018 2 PM EST 1,761.01 1,607.80 62
1/17/2018 3 PM EST 1,761.01 1,607.82 62
1/17/2018 4 PM EST 1,761.02 1,607.82 61
1/17/2018 5 PM EST 1,761.02 1,607.81 62
1/17/2018 6 PM EST 1,761.03 1,607.80 61
1/17/2018 7 PM EST 1,761.03 1,611.16 167
1/17/2018 8 PM EST 1,761.01 1,611.47 1,444
1/17/2018 9 PM EST 1,760.97 1,611.50 1,452
1/17/2018 10 PM EST 1,760.94 1,611.47 1,451

Elevations are in feet above sea level. Discharges are in cubic feet per second and are reported at the end of the hour.